sensor_id;sensor_type;location;lat;lon;timestamp;P1;durP1;ratioP1;P2;durP2;ratioP2
46447;SDS011;32145;50.390;30.778;2023-05-17T00:02:31;7.18;;;3.55;;
46447;SDS011;32145;50.390;30.778;2023-05-17T00:05:28;5.60;;;3.63;;
46447;SDS011;32145;50.390;30.778;2023-05-17T00:08:25;5.22;;;3.63;;
46447;SDS011;32145;50.390;30.778;2023-05-17T00:11:21;10.70;;;3.53;;
46447;SDS011;32145;50.390;30.778;2023-05-17T00:14:18;10.25;;;3.90;;
46447;SDS011;32145;50.390;30.778;2023-05-17T00:17:14;6.93;;;3.88;;
46447;SDS011;32145;50.390;30.778;2023-05-17T00:20:08;8.73;;;3.78;;
46447;SDS011;32145;50.390;30.778;2023-05-17T00:23:04;11.85;;;3.88;;
46447;SDS011;32145;50.390;30.778;2023-05-17T00:25:58;6.40;;;3.78;;
46447;SDS011;32145;50.390;30.778;2023-05-17T00:28:53;8.20;;;3.58;;
46447;SDS011;32145;50.390;30.778;2023-05-17T00:31:47;7.78;;;3.65;;
46447;SDS011;32145;50.390;30.778;2023-05-17T00:34:41;6.00;;;3.60;;
46447;SDS011;32145;50.390;30.778;2023-05-17T00:37:35;8.48;;;3.53;;
46447;SDS011;32145;50.390;30.778;2023-05-17T00:40:33;6.10;;;3.90;;
46447;SDS011;32145;50.390;30.778;2023-05-17T00:43:30;8.13;;;3.97;;
46447;SDS011;32145;50.390;30.778;2023-05-17T00:46:26;4.93;;;3.42;;
46447;SDS011;32145;50.390;30.778;2023-05-17T00:49:22;7.05;;;4.05;;
46447;SDS011;32145;50.390;30.778;2023-05-17T00:52:18;7.15;;;3.83;;
46447;SDS011;32145;50.390;30.778;2023-05-17T00:55:15;10.80;;;4.05;;
46447;SDS011;32145;50.390;30.778;2023-05-17T00:58:13;11.20;;;3.95;;
46447;SDS011;32145;50.390;30.778;2023-05-17T01:01:09;6.35;;;3.70;;
46447;SDS011;32145;50.390;30.778;2023-05-17T01:04:06;10.23;;;4.40;;
46447;SDS011;32145;50.390;30.778;2023-05-17T01:07:03;8.50;;;4.45;;
46447;SDS011;32145;50.390;30.778;2023-05-17T01:09:59;8.32;;;4.47;;
46447;SDS011;32145;50.390;30.778;2023-05-17T01:12:57;10.32;;;4.53;;
46447;SDS011;32145;50.390;30.778;2023-05-17T01:16:01;9.85;;;4.72;;
46447;SDS011;32145;50.390;30.778;2023-05-17T01:19:06;9.20;;;4.50;;
46447;SDS011;32145;50.390;30.778;2023-05-17T01:22:14;15.73;;;4.78;;
46447;SDS011;32145;50.390;30.778;2023-05-17T01:25:25;12.52;;;4.40;;
46447;SDS011;32145;50.390;30.778;2023-05-17T01:28:23;11.93;;;4.68;;
46447;SDS011;32145;50.390;30.778;2023-05-17T01:31:19;10.98;;;4.70;;
46447;SDS011;32145;50.390;30.778;2023-05-17T01:34:15;10.65;;;4.82;;
46447;SDS011;32145;50.390;30.778;2023-05-17T01:37:19;11.75;;;4.90;;
46447;SDS011;32145;50.390;30.778;2023-05-17T01:40:15;11.50;;;5.22;;
46447;SDS011;32145;50.390;30.778;2023-05-17T01:43:13;10.38;;;4.40;;
46447;SDS011;32145;50.390;30.778;2023-05-17T01:46:18;12.27;;;5.00;;
46447;SDS011;32145;50.390;30.778;2023-05-17T01:49:20;9.52;;;4.70;;
46447;SDS011;32145;50.390;30.778;2023-05-17T01:52:17;8.75;;;4.40;;
46447;SDS011;32145;50.390;30.778;2023-05-17T01:55:22;11.65;;;4.75;;
46447;SDS011;32145;50.390;30.778;2023-05-17T01:58:20;9.13;;;4.40;;
46447;SDS011;32145;50.390;30.778;2023-05-17T02:01:18;7.25;;;3.95;;
46447;SDS011;32145;50.390;30.778;2023-05-17T02:04:15;7.25;;;4.00;;
46447;SDS011;32145;50.390;30.778;2023-05-17T02:07:09;5.75;;;4.13;;
46447;SDS011;32145;50.390;30.778;2023-05-17T02:10:04;6.85;;;4.18;;
46447;SDS011;32145;50.390;30.778;2023-05-17T02:13:00;7.80;;;3.97;;
46447;SDS011;32145;50.390;30.778;2023-05-17T02:15:58;5.65;;;3.70;;
46447;SDS011;32145;50.390;30.778;2023-05-17T02:18:56;6.70;;;3.88;;
46447;SDS011;32145;50.390;30.778;2023-05-17T02:21:52;6.00;;;4.40;;
46447;SDS011;32145;50.390;30.778;2023-05-17T02:24:49;7.30;;;4.18;;
46447;SDS011;32145;50.390;30.778;2023-05-17T02:27:45;7.60;;;3.92;;
46447;SDS011;32145;50.390;30.778;2023-05-17T02:30:41;10.43;;;4.28;;
46447;SDS011;32145;50.390;30.778;2023-05-17T02:33:38;5.45;;;3.85;;
46447;SDS011;32145;50.390;30.778;2023-05-17T02:36:33;10.00;;;3.97;;
46447;SDS011;32145;50.390;30.778;2023-05-17T02:39:27;6.68;;;3.80;;
46447;SDS011;32145;50.390;30.778;2023-05-17T02:42:22;7.45;;;4.10;;
46447;SDS011;32145;50.390;30.778;2023-05-17T02:45:16;9.75;;;4.43;;
46447;SDS011;32145;50.390;30.778;2023-05-17T02:48:10;8.23;;;3.95;;
46447;SDS011;32145;50.390;30.778;2023-05-17T02:51:05;7.00;;;4.22;;
46447;SDS011;32145;50.390;30.778;2023-05-17T02:54:01;8.20;;;3.95;;
46447;SDS011;32145;50.390;30.778;2023-05-17T02:56:55;10.32;;;4.07;;
46447;SDS011;32145;50.390;30.778;2023-05-17T02:59:49;7.93;;;4.03;;
46447;SDS011;32145;50.390;30.778;2023-05-17T03:02:43;6.60;;;3.67;;
46447;SDS011;32145;50.390;30.778;2023-05-17T03:05:40;11.63;;;4.38;;
46447;SDS011;32145;50.390;30.778;2023-05-17T03:08:36;9.32;;;4.15;;
46447;SDS011;32145;50.390;30.778;2023-05-17T03:11:32;7.28;;;4.50;;
46447;SDS011;32145;50.390;30.778;2023-05-17T03:14:26;8.10;;;4.30;;
46447;SDS011;32145;50.390;30.778;2023-05-17T03:17:20;7.18;;;4.10;;
46447;SDS011;32145;50.390;30.778;2023-05-17T03:20:15;6.50;;;3.67;;
46447;SDS011;32145;50.390;30.778;2023-05-17T03:23:09;10.00;;;4.00;;
46447;SDS011;32145;50.390;30.778;2023-05-17T03:26:04;9.25;;;3.90;;
46447;SDS011;32145;50.390;30.778;2023-05-17T03:29:02;10.15;;;4.10;;
46447;SDS011;32145;50.390;30.778;2023-05-17T03:31:57;10.68;;;4.07;;
46447;SDS011;32145;50.390;30.778;2023-05-17T03:34:51;6.68;;;4.28;;
46447;SDS011;32145;50.390;30.778;2023-05-17T03:37:45;7.18;;;4.00;;
46447;SDS011;32145;50.390;30.778;2023-05-17T03:40:40;11.25;;;3.78;;
46447;SDS011;32145;50.390;30.778;2023-05-17T03:43:35;9.43;;;4.20;;
46447;SDS011;32145;50.390;30.778;2023-05-17T03:46:34;9.57;;;4.90;;
46447;SDS011;32145;50.390;30.778;2023-05-17T03:49:31;7.13;;;4.30;;
46447;SDS011;32145;50.390;30.778;2023-05-17T03:52:27;7.57;;;4.05;;
46447;SDS011;32145;50.390;30.778;2023-05-17T03:55:22;7.80;;;4.50;;
46447;SDS011;32145;50.390;30.778;2023-05-17T03:58:16;9.32;;;4.40;;
46447;SDS011;32145;50.390;30.778;2023-05-17T04:01:10;8.18;;;4.05;;
46447;SDS011;32145;50.390;30.778;2023-05-17T04:04:06;6.07;;;3.85;;
46447;SDS011;32145;50.390;30.778;2023-05-17T04:07:02;8.60;;;3.92;;
46447;SDS011;32145;50.390;30.778;2023-05-17T04:09:59;10.55;;;4.20;;
46447;SDS011;32145;50.390;30.778;2023-05-17T04:12:55;5.63;;;3.65;;
46447;SDS011;32145;50.390;30.778;2023-05-17T04:15:51;6.80;;;3.85;;
46447;SDS011;32145;50.390;30.778;2023-05-17T04:18:48;6.13;;;3.70;;
46447;SDS011;32145;50.390;30.778;2023-05-17T04:21:46;8.85;;;3.65;;
46447;SDS011;32145;50.390;30.778;2023-05-17T04:24:42;8.27;;;3.70;;
46447;SDS011;32145;50.390;30.778;2023-05-17T04:27:38;6.53;;;3.40;;
46447;SDS011;32145;50.390;30.778;2023-05-17T04:30:35;4.82;;;3.65;;
46447;SDS011;32145;50.390;30.778;2023-05-17T04:33:31;5.32;;;3.40;;
46447;SDS011;32145;50.390;30.778;2023-05-17T04:36:27;7.00;;;3.83;;
46447;SDS011;32145;50.390;30.778;2023-05-17T04:39:25;8.98;;;3.92;;
46447;SDS011;32145;50.390;30.778;2023-05-17T04:42:21;6.82;;;4.00;;
46447;SDS011;32145;50.390;30.778;2023-05-17T04:45:18;8.95;;;4.13;;
46447;SDS011;32145;50.390;30.778;2023-05-17T04:48:14;6.50;;;3.78;;
46447;SDS011;32145;50.390;30.778;2023-05-17T04:51:10;10.18;;;4.00;;
46447;SDS011;32145;50.390;30.778;2023-05-17T04:54:07;6.00;;;3.53;;
46447;SDS011;32145;50.390;30.778;2023-05-17T04:57:04;9.25;;;3.92;;
46447;SDS011;32145;50.390;30.778;2023-05-17T05:00:01;6.75;;;4.03;;
46447;SDS011;32145;50.390;30.778;2023-05-17T05:02:57;5.80;;;3.22;;
46447;SDS011;32145;50.390;30.778;2023-05-17T05:05:54;5.80;;;3.50;;
46447;SDS011;32145;50.390;30.778;2023-05-17T05:08:50;6.95;;;3.65;;
46447;SDS011;32145;50.390;30.778;2023-05-17T05:11:46;10.63;;;4.10;;
46447;SDS011;32145;50.390;30.778;2023-05-17T05:14:44;8.20;;;4.00;;
46447;SDS011;32145;50.390;30.778;2023-05-17T05:17:40;8.73;;;3.88;;
46447;SDS011;32145;50.390;30.778;2023-05-17T05:20:37;8.40;;;3.63;;
46447;SDS011;32145;50.390;30.778;2023-05-17T05:23:33;6.32;;;3.13;;
46447;SDS011;32145;50.390;30.778;2023-05-17T05:26:29;8.10;;;3.75;;
46447;SDS011;32145;50.390;30.778;2023-05-17T05:29:26;8.05;;;3.95;;
46447;SDS011;32145;50.390;30.778;2023-05-17T05:32:23;6.72;;;3.25;;
46447;SDS011;32145;50.390;30.778;2023-05-17T05:35:19;7.95;;;4.05;;
46447;SDS011;32145;50.390;30.778;2023-05-17T05:38:15;7.03;;;3.72;;
46447;SDS011;32145;50.390;30.778;2023-05-17T05:41:12;7.57;;;3.40;;
46447;SDS011;32145;50.390;30.778;2023-05-17T05:44:08;6.40;;;3.90;;
46447;SDS011;32145;50.390;30.778;2023-05-17T05:47:03;6.72;;;3.80;;
46447;SDS011;32145;50.390;30.778;2023-05-17T05:49:58;5.70;;;3.30;;
46447;SDS011;32145;50.390;30.778;2023-05-17T05:52:52;11.30;;;3.53;;
46447;SDS011;32145;50.390;30.778;2023-05-17T05:55:46;6.03;;;3.35;;
46447;SDS011;32145;50.390;30.778;2023-05-17T05:58:41;7.90;;;3.20;;
46447;SDS011;32145;50.390;30.778;2023-05-17T06:01:35;9.32;;;3.60;;
46447;SDS011;32145;50.390;30.778;2023-05-17T06:04:30;6.68;;;3.78;;
46447;SDS011;32145;50.390;30.778;2023-05-17T06:07:25;7.60;;;3.50;;
46447;SDS011;32145;50.390;30.778;2023-05-17T06:10:19;7.50;;;3.95;;
46447;SDS011;32145;50.390;30.778;2023-05-17T06:13:14;5.93;;;3.75;;
46447;SDS011;32145;50.390;30.778;2023-05-17T06:16:08;7.78;;;3.50;;
46447;SDS011;32145;50.390;30.778;2023-05-17T06:19:02;6.60;;;3.70;;
46447;SDS011;32145;50.390;30.778;2023-05-17T06:21:57;8.73;;;3.67;;
46447;SDS011;32145;50.390;30.778;2023-05-17T06:24:52;8.43;;;3.60;;
46447;SDS011;32145;50.390;30.778;2023-05-17T06:27:46;5.47;;;3.47;;
46447;SDS011;32145;50.390;30.778;2023-05-17T06:30:43;7.80;;;3.47;;
46447;SDS011;32145;50.390;30.778;2023-05-17T06:33:39;6.32;;;3.22;;
46447;SDS011;32145;50.390;30.778;2023-05-17T06:36:33;8.52;;;3.40;;
46447;SDS011;32145;50.390;30.778;2023-05-17T06:39:28;7.90;;;3.58;;
46447;SDS011;32145;50.390;30.778;2023-05-17T06:42:23;4.40;;;3.08;;
46447;SDS011;32145;50.390;30.778;2023-05-17T06:45:18;6.13;;;3.55;;
46447;SDS011;32145;50.390;30.778;2023-05-17T06:48:14;6.72;;;3.38;;
46447;SDS011;32145;50.390;30.778;2023-05-17T06:51:10;6.60;;;3.30;;
46447;SDS011;32145;50.390;30.778;2023-05-17T06:54:07;5.88;;;3.15;;
46447;SDS011;32145;50.390;30.778;2023-05-17T06:57:03;9.95;;;3.70;;
46447;SDS011;32145;50.390;30.778;2023-05-17T07:00:01;5.60;;;3.05;;
46447;SDS011;32145;50.390;30.778;2023-05-17T07:02:55;6.93;;;3.45;;
46447;SDS011;32145;50.390;30.778;2023-05-17T07:05:50;10.40;;;3.38;;
46447;SDS011;32145;50.390;30.778;2023-05-17T07:08:44;6.90;;;2.95;;
46447;SDS011;32145;50.390;30.778;2023-05-17T07:11:38;8.35;;;3.00;;
46447;SDS011;32145;50.390;30.778;2023-05-17T07:14:33;6.38;;;2.75;;
46447;SDS011;32145;50.390;30.778;2023-05-17T07:17:29;9.27;;;3.00;;
46447;SDS011;32145;50.390;30.778;2023-05-17T07:20:23;6.53;;;2.90;;
46447;SDS011;32145;50.390;30.778;2023-05-17T07:23:17;6.95;;;2.35;;
46447;SDS011;32145;50.390;30.778;2023-05-17T07:26:11;6.55;;;2.50;;
46447;SDS011;32145;50.390;30.778;2023-05-17T07:29:05;4.72;;;2.30;;
46447;SDS011;32145;50.390;30.778;2023-05-17T07:32:00;4.00;;;2.30;;
46447;SDS011;32145;50.390;30.778;2023-05-17T07:34:56;5.05;;;2.50;;
46447;SDS011;32145;50.390;30.778;2023-05-17T07:37:50;6.43;;;2.45;;
46447;SDS011;32145;50.390;30.778;2023-05-17T07:40:44;5.63;;;2.88;;
46447;SDS011;32145;50.390;30.778;2023-05-17T07:43:39;4.78;;;2.50;;
46447;SDS011;32145;50.390;30.778;2023-05-17T07:46:33;4.57;;;2.33;;
46447;SDS011;32145;50.390;30.778;2023-05-17T07:49:29;3.83;;;2.30;;
46447;SDS011;32145;50.390;30.778;2023-05-17T07:52:24;5.47;;;2.60;;
46447;SDS011;32145;50.390;30.778;2023-05-17T07:55:19;5.38;;;2.75;;
46447;SDS011;32145;50.390;30.778;2023-05-17T07:58:15;4.68;;;2.10;;
46447;SDS011;32145;50.390;30.778;2023-05-17T08:01:11;4.10;;;2.40;;
46447;SDS011;32145;50.390;30.778;2023-05-17T08:04:08;4.78;;;2.22;;
46447;SDS011;32145;50.390;30.778;2023-05-17T08:07:04;5.50;;;2.50;;
46447;SDS011;32145;50.390;30.778;2023-05-17T08:10:02;3.30;;;2.00;;
46447;SDS011;32145;50.390;30.778;2023-05-17T08:12:56;7.85;;;2.33;;
46447;SDS011;32145;50.390;30.778;2023-05-17T08:15:51;6.75;;;2.55;;
46447;SDS011;32145;50.390;30.778;2023-05-17T08:18:45;5.38;;;2.88;;
46447;SDS011;32145;50.390;30.778;2023-05-17T08:21:39;5.25;;;2.42;;
46447;SDS011;32145;50.390;30.778;2023-05-17T08:24:34;6.60;;;3.13;;
46447;SDS011;32145;50.390;30.778;2023-05-17T08:27:29;7.25;;;3.22;;
46447;SDS011;32145;50.390;30.778;2023-05-17T08:30:24;5.50;;;2.90;;
46447;SDS011;32145;50.390;30.778;2023-05-17T08:33:18;4.78;;;2.45;;
46447;SDS011;32145;50.390;30.778;2023-05-17T08:36:12;4.55;;;2.25;;
46447;SDS011;32145;50.390;30.778;2023-05-17T08:39:06;5.55;;;2.35;;
46447;SDS011;32145;50.390;30.778;2023-05-17T08:42:01;4.82;;;2.15;;
46447;SDS011;32145;50.390;30.778;2023-05-17T08:44:57;6.88;;;2.10;;
46447;SDS011;32145;50.390;30.778;2023-05-17T08:47:51;6.55;;;2.47;;
46447;SDS011;32145;50.390;30.778;2023-05-17T08:50:46;5.40;;;2.58;;
46447;SDS011;32145;50.390;30.778;2023-05-17T08:53:43;6.22;;;2.50;;
46447;SDS011;32145;50.390;30.778;2023-05-17T08:56:37;6.80;;;2.85;;
46447;SDS011;32145;50.390;30.778;2023-05-17T08:59:34;7.00;;;2.63;;
46447;SDS011;32145;50.390;30.778;2023-05-17T09:02:30;4.53;;;2.70;;
46447;SDS011;32145;50.390;30.778;2023-05-17T09:05:25;6.05;;;2.72;;
46447;SDS011;32145;50.390;30.778;2023-05-17T09:08:19;4.65;;;2.47;;
46447;SDS011;32145;50.390;30.778;2023-05-17T09:11:23;5.22;;;2.35;;
46447;SDS011;32145;50.390;30.778;2023-05-17T09:14:20;6.70;;;2.40;;
46447;SDS011;32145;50.390;30.778;2023-05-17T09:17:17;5.03;;;2.30;;
46447;SDS011;32145;50.390;30.778;2023-05-17T09:20:20;3.75;;;2.30;;
46447;SDS011;32145;50.390;30.778;2023-05-17T09:23:18;5.07;;;2.40;;
46447;SDS011;32145;50.390;30.778;2023-05-17T09:26:15;5.40;;;2.55;;
46447;SDS011;32145;50.390;30.778;2023-05-17T09:29:12;4.78;;;2.10;;
46447;SDS011;32145;50.390;30.778;2023-05-17T09:32:11;4.75;;;1.95;;
46447;SDS011;32145;50.390;30.778;2023-05-17T09:35:06;4.53;;;2.05;;
46447;SDS011;32145;50.390;30.778;2023-05-17T09:38:05;6.63;;;2.10;;
46447;SDS011;32145;50.390;30.778;2023-05-17T09:41:00;5.53;;;2.53;;
46447;SDS011;32145;50.390;30.778;2023-05-17T09:43:57;4.40;;;2.00;;
46447;SDS011;32145;50.390;30.778;2023-05-17T09:46:56;3.80;;;1.98;;
46447;SDS011;32145;50.390;30.778;2023-05-17T09:49:54;5.05;;;2.38;;
46447;SDS011;32145;50.390;30.778;2023-05-17T09:52:49;5.25;;;2.05;;
46447;SDS011;32145;50.390;30.778;2023-05-17T09:55:47;6.07;;;1.80;;
46447;SDS011;32145;50.390;30.778;2023-05-17T09:58:41;4.30;;;1.67;;
46447;SDS011;32145;50.390;30.778;2023-05-17T10:01:36;3.45;;;1.77;;
46447;SDS011;32145;50.390;30.778;2023-05-17T10:07:32;4.93;;;1.63;;
46447;SDS011;32145;50.390;30.778;2023-05-17T10:10:29;4.97;;;2.03;;
46447;SDS011;32145;50.390;30.778;2023-05-17T10:13:28;4.00;;;2.30;;
46447;SDS011;32145;50.390;30.778;2023-05-17T10:16:28;7.03;;;2.78;;
46447;SDS011;32145;50.390;30.778;2023-05-17T10:19:25;3.55;;;2.30;;
46447;SDS011;32145;50.390;30.778;2023-05-17T10:22:21;6.32;;;2.50;;
46447;SDS011;32145;50.390;30.778;2023-05-17T10:25:18;4.50;;;2.10;;
46447;SDS011;32145;50.390;30.778;2023-05-17T10:28:16;3.92;;;2.22;;
46447;SDS011;32145;50.390;30.778;2023-05-17T10:31:16;4.72;;;2.30;;
46447;SDS011;32145;50.390;30.778;2023-05-17T10:34:12;9.73;;;2.58;;
46447;SDS011;32145;50.390;30.778;2023-05-17T10:37:08;5.85;;;2.42;;
46447;SDS011;32145;50.390;30.778;2023-05-17T10:40:06;4.57;;;2.15;;
46447;SDS011;32145;50.390;30.778;2023-05-17T10:43:02;3.85;;;2.35;;
46447;SDS011;32145;50.390;30.778;2023-05-17T10:46:01;4.45;;;2.22;;
46447;SDS011;32145;50.390;30.778;2023-05-17T10:48:59;6.88;;;2.28;;
46447;SDS011;32145;50.390;30.778;2023-05-17T10:51:56;4.68;;;3.13;;
46447;SDS011;32145;50.390;30.778;2023-05-17T10:54:53;9.60;;;3.08;;
46447;SDS011;32145;50.390;30.778;2023-05-17T10:58:11;7.70;;;2.90;;
46447;SDS011;32145;50.390;30.778;2023-05-17T11:01:09;5.72;;;2.50;;
46447;SDS011;32145;50.390;30.778;2023-05-17T11:04:20;4.15;;;2.28;;
46447;SDS011;32145;50.390;30.778;2023-05-17T11:07:23;5.07;;;2.10;;
46447;SDS011;32145;50.390;30.778;2023-05-17T11:10:21;5.55;;;2.40;;
46447;SDS011;32145;50.390;30.778;2023-05-17T11:13:21;4.78;;;2.50;;
46447;SDS011;32145;50.390;30.778;2023-05-17T11:16:19;5.47;;;2.78;;
46447;SDS011;32145;50.390;30.778;2023-05-17T11:19:17;3.47;;;2.28;;
46447;SDS011;32145;50.390;30.778;2023-05-17T11:22:15;5.05;;;2.35;;
46447;SDS011;32145;50.390;30.778;2023-05-17T11:25:10;7.63;;;2.30;;
46447;SDS011;32145;50.390;30.778;2023-05-17T11:28:06;5.57;;;2.10;;
46447;SDS011;32145;50.390;30.778;2023-05-17T11:31:01;4.15;;;1.90;;
46447;SDS011;32145;50.390;30.778;2023-05-17T11:33:56;4.45;;;1.98;;
46447;SDS011;32145;50.390;30.778;2023-05-17T11:36:51;3.83;;;2.10;;
46447;SDS011;32145;50.390;30.778;2023-05-17T11:40:01;5.18;;;2.40;;
46447;SDS011;32145;50.390;30.778;2023-05-17T11:43:10;7.30;;;3.42;;
46447;SDS011;32145;50.390;30.778;2023-05-17T11:46:06;3.83;;;2.08;;
46447;SDS011;32145;50.390;30.778;2023-05-17T11:49:00;5.47;;;2.00;;
46447;SDS011;32145;50.390;30.778;2023-05-17T11:51:55;6.93;;;1.80;;
46447;SDS011;32145;50.390;30.778;2023-05-17T11:54:49;3.15;;;1.92;;
46447;SDS011;32145;50.390;30.778;2023-05-17T11:57:45;5.00;;;1.83;;
46447;SDS011;32145;50.390;30.778;2023-05-17T12:00:41;2.50;;;1.70;;
46447;SDS011;32145;50.390;30.778;2023-05-17T12:03:36;3.40;;;1.70;;
46447;SDS011;32145;50.390;30.778;2023-05-17T12:06:32;2.78;;;1.42;;
46447;SDS011;32145;50.390;30.778;2023-05-17T12:09:29;3.17;;;1.85;;
46447;SDS011;32145;50.390;30.778;2023-05-17T12:12:25;4.00;;;2.00;;
46447;SDS011;32145;50.390;30.778;2023-05-17T12:15:21;5.93;;;1.90;;
46447;SDS011;32145;50.390;30.778;2023-05-17T12:18:17;3.03;;;1.70;;
46447;SDS011;32145;50.390;30.778;2023-05-17T12:21:14;4.97;;;2.00;;
46447;SDS011;32145;50.390;30.778;2023-05-17T12:24:10;5.18;;;1.90;;
46447;SDS011;32145;50.390;30.778;2023-05-17T12:27:07;7.55;;;2.00;;
46447;SDS011;32145;50.390;30.778;2023-05-17T12:30:12;3.20;;;1.75;;
46447;SDS011;32145;50.390;30.778;2023-05-17T12:33:10;4.72;;;1.95;;
46447;SDS011;32145;50.390;30.778;2023-05-17T12:36:07;7.65;;;2.50;;
46447;SDS011;32145;50.390;30.778;2023-05-17T12:39:05;6.93;;;1.88;;
46447;SDS011;32145;50.390;30.778;2023-05-17T12:42:00;5.68;;;1.90;;
46447;SDS011;32145;50.390;30.778;2023-05-17T12:44:54;3.33;;;1.70;;
46447;SDS011;32145;50.390;30.778;2023-05-17T12:47:49;5.22;;;2.00;;
46447;SDS011;32145;50.390;30.778;2023-05-17T12:50:44;3.85;;;2.00;;
46447;SDS011;32145;50.390;30.778;2023-05-17T12:53:41;6.13;;;2.40;;
46447;SDS011;32145;50.390;30.778;2023-05-17T12:56:40;8.43;;;3.15;;
46447;SDS011;32145;50.390;30.778;2023-05-17T12:59:44;7.60;;;3.20;;
46447;SDS011;32145;50.390;30.778;2023-05-17T13:02:41;9.20;;;3.40;;
46447;SDS011;32145;50.390;30.778;2023-05-17T13:05:37;4.47;;;3.10;;
46447;SDS011;32145;50.390;30.778;2023-05-17T13:08:35;11.07;;;3.30;;
46447;SDS011;32145;50.390;30.778;2023-05-17T13:11:32;6.53;;;3.53;;
46447;SDS011;32145;50.390;30.778;2023-05-17T13:14:33;7.68;;;3.30;;
46447;SDS011;32145;50.390;30.778;2023-05-17T13:17:33;6.25;;;3.00;;
46447;SDS011;32145;50.390;30.778;2023-05-17T13:20:31;8.95;;;3.22;;
46447;SDS011;32145;50.390;30.778;2023-05-17T13:23:25;6.72;;;3.00;;
46447;SDS011;32145;50.390;30.778;2023-05-17T13:26:21;8.13;;;3.10;;
46447;SDS011;32145;50.390;30.778;2023-05-17T13:29:15;5.30;;;3.38;;
46447;SDS011;32145;50.390;30.778;2023-05-17T13:32:10;7.93;;;3.92;;
46447;SDS011;32145;50.390;30.778;2023-05-17T13:35:07;9.27;;;3.20;;
46447;SDS011;32145;50.390;30.778;2023-05-17T13:38:04;6.45;;;2.92;;
46447;SDS011;32145;50.390;30.778;2023-05-17T13:41:00;5.88;;;2.70;;
46447;SDS011;32145;50.390;30.778;2023-05-17T13:43:56;6.55;;;2.95;;
46447;SDS011;32145;50.390;30.778;2023-05-17T13:46:50;8.45;;;3.17;;
46447;SDS011;32145;50.390;30.778;2023-05-17T13:49:45;8.50;;;2.67;;
46447;SDS011;32145;50.390;30.778;2023-05-17T13:52:41;9.20;;;2.67;;
46447;SDS011;32145;50.390;30.778;2023-05-17T13:55:37;5.57;;;2.65;;
46447;SDS011;32145;50.390;30.778;2023-05-17T13:58:33;5.75;;;2.90;;
46447;SDS011;32145;50.390;30.778;2023-05-17T14:01:31;9.27;;;2.85;;
46447;SDS011;32145;50.390;30.778;2023-05-17T14:04:27;5.18;;;2.38;;
46447;SDS011;32145;50.390;30.778;2023-05-17T14:07:24;5.95;;;2.55;;
46447;SDS011;32145;50.390;30.778;2023-05-17T14:10:20;5.80;;;2.88;;
46447;SDS011;32145;50.390;30.778;2023-05-17T14:13:16;5.85;;;2.20;;
46447;SDS011;32145;50.390;30.778;2023-05-17T14:16:10;6.13;;;2.40;;
46447;SDS011;32145;50.390;30.778;2023-05-17T14:19:06;7.10;;;2.67;;
46447;SDS011;32145;50.390;30.778;2023-05-17T14:22:00;8.05;;;2.53;;
46447;SDS011;32145;50.390;30.778;2023-05-17T14:24:55;5.18;;;2.55;;
46447;SDS011;32145;50.390;30.778;2023-05-17T14:27:51;5.75;;;2.80;;
46447;SDS011;32145;50.390;30.778;2023-05-17T14:30:47;3.95;;;2.35;;
46447;SDS011;32145;50.390;30.778;2023-05-17T14:33:42;5.63;;;2.50;;
46447;SDS011;32145;50.390;30.778;2023-05-17T14:36:37;7.03;;;2.72;;
46447;SDS011;32145;50.390;30.778;2023-05-17T14:39:32;7.18;;;2.70;;
46447;SDS011;32145;50.390;30.778;2023-05-17T14:42:26;6.80;;;2.58;;
46447;SDS011;32145;50.390;30.778;2023-05-17T14:45:20;7.63;;;2.83;;
46447;SDS011;32145;50.390;30.778;2023-05-17T14:48:15;7.00;;;2.97;;
46447;SDS011;32145;50.390;30.778;2023-05-17T14:51:12;5.32;;;2.75;;
46447;SDS011;32145;50.390;30.778;2023-05-17T14:54:09;5.88;;;2.75;;
46447;SDS011;32145;50.390;30.778;2023-05-17T14:57:05;6.53;;;2.28;;
46447;SDS011;32145;50.390;30.778;2023-05-17T15:00:02;6.20;;;2.47;;
46447;SDS011;32145;50.390;30.778;2023-05-17T15:02:59;6.25;;;2.38;;
46447;SDS011;32145;50.390;30.778;2023-05-17T15:05:55;4.47;;;2.30;;
46447;SDS011;32145;50.390;30.778;2023-05-17T15:08:52;3.78;;;2.15;;
46447;SDS011;32145;50.390;30.778;2023-05-17T15:11:49;5.28;;;2.20;;
46447;SDS011;32145;50.390;30.778;2023-05-17T15:14:46;4.75;;;2.47;;
46447;SDS011;32145;50.390;30.778;2023-05-17T15:17:42;5.07;;;2.65;;
46447;SDS011;32145;50.390;30.778;2023-05-17T15:20:38;5.10;;;2.50;;
46447;SDS011;32145;50.390;30.778;2023-05-17T15:23:35;6.82;;;2.80;;
46447;SDS011;32145;50.390;30.778;2023-05-17T15:26:32;6.60;;;2.50;;
46447;SDS011;32145;50.390;30.778;2023-05-17T15:29:29;7.05;;;2.63;;
46447;SDS011;32145;50.390;30.778;2023-05-17T15:32:23;4.53;;;2.38;;
46447;SDS011;32145;50.390;30.778;2023-05-17T15:35:18;4.80;;;2.50;;
46447;SDS011;32145;50.390;30.778;2023-05-17T15:38:12;4.68;;;2.22;;
46447;SDS011;32145;50.390;30.778;2023-05-17T15:41:08;5.82;;;2.70;;
46447;SDS011;32145;50.390;30.778;2023-05-17T15:44:04;4.03;;;2.30;;
46447;SDS011;32145;50.390;30.778;2023-05-17T15:47:00;5.50;;;2.55;;
46447;SDS011;32145;50.390;30.778;2023-05-17T15:49:54;9.10;;;3.22;;
46447;SDS011;32145;50.390;30.778;2023-05-17T15:52:50;6.80;;;2.70;;
46447;SDS011;32145;50.390;30.778;2023-05-17T15:55:44;6.15;;;2.88;;
46447;SDS011;32145;50.390;30.778;2023-05-17T15:58:38;10.18;;;2.58;;
46447;SDS011;32145;50.390;30.778;2023-05-17T16:01:33;6.25;;;2.20;;
46447;SDS011;32145;50.390;30.778;2023-05-17T16:04:28;18.58;;;3.30;;
46447;SDS011;32145;50.390;30.778;2023-05-17T16:07:23;7.72;;;2.58;;
46447;SDS011;32145;50.390;30.778;2023-05-17T16:10:17;16.92;;;2.85;;
46447;SDS011;32145;50.390;30.778;2023-05-17T16:13:11;11.18;;;2.55;;
46447;SDS011;32145;50.390;30.778;2023-05-17T16:16:06;13.02;;;3.10;;
46447;SDS011;32145;50.390;30.778;2023-05-17T16:19:02;7.32;;;2.38;;
46447;SDS011;32145;50.390;30.778;2023-05-17T16:22:00;5.00;;;2.53;;
46447;SDS011;32145;50.390;30.778;2023-05-17T16:24:56;7.78;;;2.55;;
46447;SDS011;32145;50.390;30.778;2023-05-17T16:27:52;10.32;;;2.50;;
46447;SDS011;32145;50.390;30.778;2023-05-17T16:30:49;11.02;;;2.75;;
46447;SDS011;32145;50.390;30.778;2023-05-17T16:33:46;6.75;;;2.25;;
46447;SDS011;32145;50.390;30.778;2023-05-17T16:36:42;13.55;;;2.67;;
46447;SDS011;32145;50.390;30.778;2023-05-17T16:39:40;9.88;;;2.70;;
46447;SDS011;32145;50.390;30.778;2023-05-17T16:42:36;26.33;;;3.78;;
46447;SDS011;32145;50.390;30.778;2023-05-17T16:45:32;21.52;;;4.47;;
46447;SDS011;32145;50.390;30.778;2023-05-17T16:48:29;14.38;;;4.32;;
46447;SDS011;32145;50.390;30.778;2023-05-17T16:51:25;8.00;;;2.85;;
46447;SDS011;32145;50.390;30.778;2023-05-17T16:54:21;5.57;;;3.40;;
46447;SDS011;32145;50.390;30.778;2023-05-17T16:57:19;9.35;;;3.05;;
46447;SDS011;32145;50.390;30.778;2023-05-17T17:00:16;7.13;;;2.85;;
46447;SDS011;32145;50.390;30.778;2023-05-17T17:03:12;9.05;;;3.55;;
46447;SDS011;32145;50.390;30.778;2023-05-17T17:06:09;6.43;;;3.30;;
46447;SDS011;32145;50.390;30.778;2023-05-17T17:09:05;11.25;;;3.13;;
46447;SDS011;32145;50.390;30.778;2023-05-17T17:12:02;10.00;;;3.30;;
46447;SDS011;32145;50.390;30.778;2023-05-17T17:15:00;8.98;;;3.40;;
46447;SDS011;32145;50.390;30.778;2023-05-17T17:17:54;6.55;;;3.72;;
46447;SDS011;32145;50.390;30.778;2023-05-17T17:20:49;8.48;;;3.92;;
46447;SDS011;32145;50.390;30.778;2023-05-17T17:23:43;11.50;;;3.63;;
46447;SDS011;32145;50.390;30.778;2023-05-17T17:26:37;9.27;;;3.20;;
46447;SDS011;32145;50.390;30.778;2023-05-17T17:29:32;11.13;;;3.90;;